Time;durP1;ratioP1;P1;durP2;ratioP2;P2;SDS_P1;SDS_P2;PMS_P1;PMS_P2;Temp;Humidity;BMP_temperature;BMP_pressure;BME280_temperature;BME280_humidity;BME280_pressure;Samples;Min_cycle;Max_cycle;Signal;HPM_P1;HPM_P2
2022/05/09 00:01:47;;;;;;;4.68;3.60;;;24.40;51.90;;;;;;6283143;27;80362;-65
2022/05/09 00:04:48;;;;;;;6.65;3.17;;;24.40;52.00;;;;;;6283458;27;80488;-65
2022/05/09 00:07:48;;;;;;;4.13;2.92;;;24.40;51.90;;;;;;6283364;27;80548;-66
2022/05/09 00:10:49;;;;;;;3.53;2.80;;;24.40;52.00;;;;;;6282821;27;80600;-65
2022/05/09 00:13:49;;;;;;;4.75;3.15;;;24.40;51.90;;;;;;6279526;27;80354;-66
2022/05/09 00:16:51;;;;;;;4.00;2.78;;;24.40;51.90;;;;;;6282639;27;80620;-66
2022/05/09 00:19:51;;;;;;;3.47;3.03;;;24.40;51.90;;;;;;6282611;27;80334;-66
2022/05/09 00:22:53;;;;;;;3.28;2.70;;;24.40;52.00;;;;;;6283028;27;80609;-65
2022/05/09 00:25:53;;;;;;;3.40;2.83;;;24.40;52.00;;;;;;6283074;27;80300;-66
2022/05/09 00:28:54;;;;;;;7.20;3.03;;;24.40;52.00;;;;;;6282746;27;80737;-65
2022/05/09 00:31:56;;;;;;;3.35;2.78;;;24.40;52.00;;;;;;6267584;27;81303;-64
2022/05/09 00:34:57;;;;;;;3.30;2.80;;;24.40;51.90;;;;;;6282757;27;82066;-66
2022/05/09 00:37:57;;;;;;;8.27;3.08;;;24.40;52.00;;;;;;6282584;27;80767;-65
2022/05/09 00:44:17;;;;;;;3.78;2.95;;;24.40;52.00;;;;;;6282917;27;80516;-65
2022/05/09 00:47:20;;;;;;;3.20;2.90;;;24.40;52.00;;;;;;6282639;27;80249;-64
2022/05/09 00:50:21;;;;;;;4.45;2.85;;;24.40;52.10;;;;;;6282205;27;81024;-64
2022/05/09 00:53:22;;;;;;;5.60;3.25;;;24.40;52.10;;;;;;6282350;27;80543;-65
2022/05/09 00:56:22;;;;;;;3.42;3.10;;;24.40;52.10;;;;;;6282447;27;80589;-64
2022/05/09 00:59:23;;;;;;;10.95;4.13;;;24.40;52.10;;;;;;6280846;27;80282;-65
2022/05/09 01:02:23;;;;;;;3.50;2.97;;;24.40;52.10;;;;;;6281988;27;80733;-65
2022/05/09 01:05:24;;;;;;;5.20;3.28;;;24.40;52.00;;;;;;6282549;27;80203;-65
2022/05/09 01:08:24;;;;;;;4.68;3.35;;;24.40;52.00;;;;;;6280687;27;80691;-65
2022/05/09 01:11:25;;;;;;;5.63;2.65;;;24.40;52.00;;;;;;6282012;27;80435;-65
2022/05/09 01:14:25;;;;;;;4.82;3.20;;;24.30;51.90;;;;;;6268981;27;80473;-65
2022/05/09 01:17:26;;;;;;;7.05;3.20;;;24.40;52.00;;;;;;6282096;27;80593;-65
2022/05/09 01:20:26;;;;;;;4.63;2.97;;;24.40;52.10;;;;;;6281345;27;80943;-65
2022/05/09 01:23:27;;;;;;;4.70;3.20;;;24.40;52.10;;;;;;6282421;27;80818;-65
2022/05/09 01:26:27;;;;;;;2.75;2.47;;;24.40;52.20;;;;;;6281728;27;80303;-65
2022/05/09 01:29:28;;;;;;;3.25;2.78;;;24.30;52.10;;;;;;6282016;27;80735;-64
2022/05/09 01:32:28;;;;;;;5.05;2.70;;;24.30;52.10;;;;;;6283070;27;80596;-64
2022/05/09 01:35:29;;;;;;;4.45;3.58;;;24.30;52.20;;;;;;6286175;27;80758;-65
2022/05/09 01:38:29;;;;;;;3.00;2.58;;;24.30;52.20;;;;;;6286258;27;80336;-65
2022/05/09 01:41:30;;;;;;;3.47;2.80;;;24.40;52.30;;;;;;6286273;27;80273;-64
2022/05/09 01:44:30;;;;;;;3.67;2.95;;;24.30;52.30;;;;;;6284856;27;80988;-65
2022/05/09 01:50:50;;;;;;;5.13;3.53;;;24.40;52.40;;;;;;6286068;27;80481;-66
2022/05/09 01:53:52;;;;;;;3.53;2.65;;;24.40;52.40;;;;;;6286154;27;80412;-65
2022/05/09 01:56:52;;;;;;;4.30;3.20;;;24.30;52.40;;;;;;6285929;27;81046;-65
2022/05/09 01:59:53;;;;;;;5.80;3.28;;;24.30;52.50;;;;;;6285649;27;80475;-64
2022/05/09 02:02:53;;;;;;;3.85;2.72;;;24.30;52.50;;;;;;6286221;27;80544;-65
2022/05/09 02:05:54;;;;;;;6.05;3.40;;;24.30;52.50;;;;;;6286057;27;80724;-65
2022/05/09 02:08:54;;;;;;;4.10;2.90;;;24.30;52.50;;;;;;6286059;27;80487;-65
2022/05/09 02:11:55;;;;;;;5.65;3.22;;;24.30;52.50;;;;;;6285576;27;80664;-65
2022/05/09 02:14:55;;;;;;;5.97;3.00;;;24.30;52.50;;;;;;6285330;27;80831;-65
2022/05/09 02:17:56;;;;;;;5.72;2.97;;;24.30;52.50;;;;;;6285583;27;80595;-65
2022/05/09 02:20:56;;;;;;;6.95;2.70;;;24.30;52.50;;;;;;6284967;27;81492;-65
2022/05/09 02:23:57;;;;;;;4.10;2.90;;;24.30;52.50;;;;;;6277989;27;80022;-64
2022/05/09 02:26:57;;;;;;;3.97;2.88;;;24.30;52.50;;;;;;6275425;27;80645;-65
2022/05/09 02:29:58;;;;;;;6.28;3.35;;;24.30;52.50;;;;;;6285688;27;80816;-64
2022/05/09 02:32:58;;;;;;;5.60;3.25;;;24.30;52.60;;;;;;6284418;27;80318;-65
2022/05/09 02:35:59;;;;;;;5.45;2.80;;;24.30;52.60;;;;;;6267471;27;80610;-64
2022/05/09 02:38:59;;;;;;;7.55;3.42;;;24.30;52.50;;;;;;6269039;27;80424;-65
2022/05/09 02:42:00;;;;;;;7.15;3.25;;;24.30;52.50;;;;;;6280588;27;80589;-65
2022/05/09 02:45:01;;;;;;;4.38;3.00;;;24.30;52.50;;;;;;6284164;27;80425;-64
2022/05/09 02:48:01;;;;;;;5.28;3.38;;;24.30;52.50;;;;;;6271548;27;80379;-65
2022/05/09 02:51:02;;;;;;;5.65;3.22;;;24.30;52.40;;;;;;6284555;27;80511;-64
2022/05/09 02:54:02;;;;;;;4.50;3.08;;;24.30;52.40;;;;;;6277183;27;80908;-64
2022/05/09 02:57:03;;;;;;;6.00;3.53;;;24.30;52.40;;;;;;6284592;27;80809;-64
2022/05/09 03:00:03;;;;;;;6.55;3.20;;;24.30;52.30;;;;;;6284337;27;80747;-64
2022/05/09 03:06:23;;;;;;;4.97;3.13;;;24.30;52.30;;;;;;6272088;27;83996;-64
2022/05/09 03:09:24;;;;;;;6.28;3.15;;;24.30;52.30;;;;;;6282972;27;82296;-65
2022/05/09 03:12:24;;;;;;;6.28;3.40;;;24.30;52.30;;;;;;6283445;27;80182;-64
2022/05/09 03:15:24;;;;;;;4.30;3.15;;;24.30;52.30;;;;;;6283597;27;81763;-64
2022/05/09 03:18:27;;;;;;;4.05;3.10;;;24.30;52.30;;;;;;6283725;27;80483;-65
2022/05/09 03:21:27;;;;;;;6.65;3.53;;;24.30;52.20;;;;;;6274246;27;80272;-65
2022/05/09 03:24:28;;;;;;;5.78;3.15;;;24.30;52.30;;;;;;6284146;27;80506;-65
2022/05/09 03:27:28;;;;;;;5.97;3.20;;;24.30;52.30;;;;;;6275512;27;80270;-64
2022/05/09 03:30:29;;;;;;;6.07;3.38;;;24.30;52.30;;;;;;6283695;27;80552;-64
2022/05/09 03:33:29;;;;;;;5.32;3.00;;;24.30;52.20;;;;;;6283742;27;80247;-64
2022/05/09 03:36:33;;;;;;;5.03;3.25;;;24.30;52.30;;;;;;6277552;27;85888;-65
2022/05/09 03:39:33;;;;;;;4.38;2.83;;;24.30;52.20;;;;;;6283903;27;80264;-64
2022/05/09 03:42:34;;;;;;;6.82;3.45;;;24.30;52.30;;;;;;6275823;27;80584;-65
2022/05/09 03:45:35;;;;;;;6.45;3.20;;;24.30;52.30;;;;;;6281929;27;80999;-64
2022/05/09 03:48:35;;;;;;;6.90;3.35;;;24.30;52.30;;;;;;6272415;27;80562;-65
2022/05/09 03:51:36;;;;;;;6.68;3.60;;;24.30;52.40;;;;;;6282303;27;80495;-65
2022/05/09 03:54:36;;;;;;;5.68;3.65;;;24.30;52.50;;;;;;6263800;27;81933;-67
2022/05/09 03:57:39;;;;;;;10.43;4.65;;;24.30;52.20;;;;;;6264001;27;80303;-65
2022/05/09 04:00:39;;;;;;;9.95;5.03;;;24.30;52.90;;;;;;6265758;27;81161;-64
2022/05/09 04:03:40;;;;;;;13.10;4.85;;;24.30;52.50;;;;;;6283207;27;80608;-64
2022/05/09 04:06:40;;;;;;;9.50;4.90;;;24.30;52.60;;;;;;6282864;27;80395;-64
2022/05/09 04:09:41;;;;;;;8.70;4.40;;;24.30;52.80;;;;;;6281416;27;81302;-64
2022/05/09 04:12:41;;;;;;;11.07;4.50;;;24.30;53.20;;;;;;6282595;27;80544;-65
2022/05/09 04:19:01;;;;;;;12.20;4.55;;;24.30;53.40;;;;;;6282815;27;82545;-64
2022/05/09 04:22:02;;;;;;;11.07;4.28;;;24.30;53.90;;;;;;6281333;27;81415;-62
2022/05/09 04:25:04;;;;;;;6.93;3.53;;;24.40;53.80;;;;;;6283458;27;80262;-64
2022/05/09 04:28:04;;;;;;;10.55;4.28;;;24.40;54.10;;;;;;6275295;27;80333;-64
2022/05/09 04:31:05;;;;;;;6.95;4.28;;;24.40;54.30;;;;;;6283200;27;80409;-65
2022/05/09 04:34:06;;;;;;;5.13;3.40;;;24.50;54.40;;;;;;6278521;27;80314;-64
2022/05/09 04:37:06;;;;;;;11.00;4.35;;;24.50;54.50;;;;;;6283278;27;80590;-63
2022/05/09 04:40:07;;;;;;;6.03;3.63;;;24.50;54.50;;;;;;6282842;27;81587;-68
2022/05/09 04:43:07;;;;;;;10.10;3.75;;;24.50;54.20;;;;;;6282734;27;80521;-67
2022/05/09 04:46:08;;;;;;;7.90;3.42;;;24.50;54.40;;;;;;6277466;27;80563;-67
2022/05/09 04:49:08;;;;;;;6.50;3.78;;;24.50;54.20;;;;;;6283326;27;80729;-64
2022/05/09 04:52:11;;;;;;;11.50;4.43;;;24.50;54.50;;;;;;6282664;27;80541;-66
2022/05/09 04:55:11;;;;;;;6.85;3.63;;;24.50;54.60;;;;;;6283018;27;80543;-76
2022/05/09 04:58:12;;;;;;;15.68;4.10;;;24.50;54.30;;;;;;6275733;27;80409;-65
2022/05/09 05:01:13;;;;;;;9.85;3.80;;;24.50;54.70;;;;;;6273227;27;80495;-68
2022/05/09 05:04:16;;;;;;;11.68;4.25;;;24.50;54.50;;;;;;6282161;27;80316;-70
2022/05/09 05:07:16;;;;;;;8.02;4.28;;;24.50;54.20;;;;;;6284094;27;80427;-66
2022/05/09 05:10:17;;;;;;;5.63;3.30;;;24.50;54.20;;;;;;6286055;27;80565;-67
2022/05/09 05:13:17;;;;;;;4.93;3.33;;;24.50;54.10;;;;;;6285815;27;80521;-66
2022/05/09 05:16:18;;;;;;;7.43;3.42;;;24.40;53.60;;;;;;6286430;27;80720;-66
2022/05/09 05:19:19;;;;;;;8.02;3.72;;;24.40;53.40;;;;;;6286556;27;80182;-66
2022/05/09 05:22:20;;;;;;;19.50;3.35;;;24.40;53.50;;;;;;6286381;27;80679;-66
2022/05/09 05:25:21;;;;;;;4.93;3.55;;;24.40;53.10;;;;;;6286304;27;80375;-66
2022/05/09 05:28:21;;;;;;;7.45;3.60;;;24.40;53.00;;;;;;6279873;27;80455;-66
2022/05/09 05:31:22;;;;;;;5.63;3.72;;;24.40;52.90;;;;;;6286252;27;81302;-66
2022/05/09 05:34:22;;;;;;;9.05;4.60;;;24.40;52.70;;;;;;6286350;27;80889;-66
2022/05/09 05:37:23;;;;;;;8.77;4.22;;;24.40;52.50;;;;;;6286366;27;80540;-68
2022/05/09 05:40:23;;;;;;;7.72;4.65;;;24.40;52.40;;;;;;6277664;27;83335;-67
2022/05/09 05:43:24;;;;;;;7.18;4.30;;;24.40;52.20;;;;;;6284168;27;80797;-67
2022/05/09 05:46:24;;;;;;;7.70;4.93;;;24.30;52.00;;;;;;6286488;27;80617;-66
2022/05/09 05:49:25;;;;;;;7.40;4.15;;;24.30;52.00;;;;;;6286359;27;81028;-66
2022/05/09 05:52:25;;;;;;;9.45;4.47;;;24.30;52.20;;;;;;6286400;27;80528;-66
2022/05/09 05:55:26;;;;;;;9.07;4.22;;;24.40;52.20;;;;;;6276428;27;80423;-67
2022/05/09 05:58:28;;;;;;;5.72;3.92;;;24.40;52.10;;;;;;6285908;27;80409;-66
2022/05/09 06:01:29;;;;;;;6.53;3.65;;;24.30;51.70;;;;;;6286187;27;81505;-67
2022/05/09 06:04:29;;;;;;;5.80;3.80;;;24.30;51.90;;;;;;6284549;27;82779;-67
2022/05/09 06:07:30;;;;;;;7.78;4.47;;;24.40;51.70;;;;;;6286021;27;80545;-67
2022/05/09 06:10:32;;;;;;;8.25;4.45;;;24.40;51.70;;;;;;6274796;27;80835;-68
2022/05/09 06:13:32;;;;;;;8.15;4.93;;;24.40;51.60;;;;;;6285275;27;80616;-68
2022/05/09 06:16:33;;;;;;;7.22;3.80;;;24.40;51.70;;;;;;6285734;27;81349;-67
2022/05/09 06:19:33;;;;;;;8.18;4.30;;;24.40;51.70;;;;;;6284688;27;80458;-67
2022/05/09 06:22:36;;;;;;;6.28;4.00;;;24.40;51.80;;;;;;6279072;27;80602;-66
2022/05/09 06:25:37;;;;;;;7.63;3.90;;;24.40;51.60;;;;;;6280982;27;82224;-66
2022/05/09 06:28:37;;;;;;;6.85;4.18;;;24.40;51.80;;;;;;6285239;27;80471;-66
2022/05/09 06:31:38;;;;;;;5.38;3.75;;;24.40;51.50;;;;;;6285139;27;80708;-66
2022/05/09 06:34:38;;;;;;;7.07;4.05;;;24.40;51.50;;;;;;6283782;27;81850;-67
2022/05/09 06:37:39;;;;;;;6.50;4.25;;;24.40;51.20;;;;;;6285407;27;80756;-66
2022/05/09 06:40:39;;;;;;;8.38;3.80;;;24.40;51.30;;;;;;6285322;27;80335;-66
2022/05/09 06:43:42;;;;;;;7.68;3.88;;;24.40;51.20;;;;;;6285469;27;81126;-66
2022/05/09 06:46:43;;;;;;;9.63;3.92;;;24.40;50.90;;;;;;6284981;27;79997;-66
2022/05/09 06:49:43;;;;;;;5.28;3.53;;;24.40;50.90;;;;;;6285042;27;80498;-67
2022/05/09 06:52:44;;;;;;;6.85;4.10;;;24.40;50.80;;;;;;6284959;27;81703;-68
2022/05/09 06:55:44;;;;;;;5.05;3.10;;;24.50;50.90;;;;;;6285723;27;80749;-68
2022/05/09 06:58:45;;;;;;;7.03;3.25;;;24.50;50.70;;;;;;6284857;27;80625;-67
2022/05/09 07:01:45;;;;;;;4.22;3.22;;;24.50;50.60;;;;;;6285302;27;80799;-67
2022/05/09 07:04:46;;;;;;;7.10;3.60;;;24.50;50.70;;;;;;6284961;27;80516;-68
2022/05/09 07:07:47;;;;;;;5.00;3.90;;;24.50;50.70;;;;;;6285068;27;80755;-68
2022/05/09 07:10:48;;;;;;;7.18;3.38;;;24.50;51.10;;;;;;6284670;27;80626;-68
2022/05/09 07:13:48;;;;;;;6.25;3.63;;;24.60;50.60;;;;;;6284337;27;81004;-68
2022/05/09 07:16:49;;;;;;;5.45;3.88;;;24.60;50.40;;;;;;6284578;27;81252;-68
2022/05/09 07:19:49;;;;;;;4.10;3.00;;;24.60;50.30;;;;;;6281610;27;80401;-68
2022/05/09 07:22:50;;;;;;;5.20;3.17;;;24.60;50.10;;;;;;6285145;27;80524;-68
2022/05/09 07:25:50;;;;;;;10.63;3.20;;;24.60;49.90;;;;;;6285034;27;80599;-67
2022/05/09 07:28:51;;;;;;;5.32;3.25;;;24.60;50.00;;;;;;6283932;27;80478;-68
2022/05/09 07:31:52;;;;;;;4.63;2.90;;;24.70;50.00;;;;;;6283563;27;80608;-69
2022/05/09 07:34:53;;;;;;;4.20;3.13;;;24.70;49.90;;;;;;6280113;27;80358;-69
2022/05/09 07:37:53;;;;;;;5.20;3.10;;;24.70;50.00;;;;;;6284410;27;80261;-69
2022/05/09 07:40:54;;;;;;;5.18;3.25;;;24.60;49.70;;;;;;6284765;27;80325;-69
2022/05/09 07:43:54;;;;;;;6.35;3.42;;;24.60;49.70;;;;;;6284804;27;80447;-68
2022/05/09 07:46:57;;;;;;;8.40;3.65;;;24.70;49.80;;;;;;6279269;27;80635;-68
2022/05/09 07:49:57;;;;;;;5.03;2.72;;;24.70;49.70;;;;;;6284178;27;80670;-68
2022/05/09 07:52:58;;;;;;;5.97;3.50;;;24.70;49.50;;;;;;6284088;27;80133;-68
2022/05/09 07:56:00;;;;;;;5.05;3.15;;;24.70;49.40;;;;;;6283664;27;80577;-69
2022/05/09 07:59:02;;;;;;;7.95;3.08;;;24.70;49.20;;;;;;6283931;27;80760;-68
2022/05/09 08:02:02;;;;;;;4.15;3.08;;;24.70;49.10;;;;;;6268501;27;81367;-68
2022/05/09 08:05:05;;;;;;;9.43;3.55;;;24.70;48.90;;;;;;6281232;27;80774;-68
2022/05/09 08:08:06;;;;;;;8.63;3.45;;;24.80;48.90;;;;;;6283565;27;80392;-68
2022/05/09 08:11:06;;;;;;;8.07;3.63;;;24.80;48.70;;;;;;6283582;27;81058;-68
2022/05/09 08:14:07;;;;;;;7.47;3.50;;;24.70;48.60;;;;;;6283162;27;80555;-68
2022/05/09 08:17:09;;;;;;;7.40;4.43;;;24.70;48.60;;;;;;6276569;27;80201;-68
2022/05/09 08:20:09;;;;;;;8.38;3.80;;;24.70;48.20;;;;;;6283453;27;80532;-68
2022/05/09 08:23:10;;;;;;;7.20;3.95;;;24.70;48.20;;;;;;6283958;27;80342;-67
2022/05/09 08:26:11;;;;;;;7.10;4.38;;;24.70;48.10;;;;;;6283720;27;80352;-68
2022/05/09 08:29:12;;;;;;;7.30;4.03;;;24.80;48.30;;;;;;6276169;27;80270;-68
2022/05/09 08:32:13;;;;;;;8.00;4.10;;;24.80;48.20;;;;;;6271014;27;81723;-68
2022/05/09 08:35:13;;;;;;;6.68;3.50;;;24.80;48.10;;;;;;6281485;27;82000;-68
2022/05/09 08:38:14;;;;;;;6.05;3.17;;;24.80;48.10;;;;;;6283312;27;80410;-67
2022/05/09 08:41:14;;;;;;;10.50;4.28;;;24.90;48.10;;;;;;6283903;27;80477;-68
2022/05/09 08:44:15;;;;;;;7.60;3.85;;;24.80;48.50;;;;;;6278433;27;80557;-68
2022/05/09 08:47:15;;;;;;;11.82;4.40;;;24.90;48.30;;;;;;6287616;27;81884;-68
2022/05/09 08:50:17;;;;;;;6.25;3.72;;;24.90;48.30;;;;;;6287355;27;80273;-67
2022/05/09 08:53:19;;;;;;;7.30;4.10;;;24.90;47.90;;;;;;6287278;27;80432;-68
2022/05/09 08:56:20;;;;;;;8.73;4.00;;;24.90;47.70;;;;;;6287522;27;81667;-68
2022/05/09 08:59:20;;;;;;;10.30;3.55;;;24.90;47.50;;;;;;6287192;27;80662;-68
2022/05/09 09:02:21;;;;;;;6.68;3.35;;;24.90;47.50;;;;;;6287020;27;81314;-68
2022/05/09 09:05:22;;;;;;;6.70;3.20;;;24.90;47.70;;;;;;6287148;27;80339;-67
2022/05/09 09:08:22;;;;;;;7.97;3.67;;;24.90;47.10;;;;;;6287091;27;80789;-68
2022/05/09 09:11:23;;;;;;;8.15;3.45;;;24.90;47.50;;;;;;6279801;27;80977;-68
2022/05/09 09:14:24;;;;;;;8.38;3.75;;;24.90;46.60;;;;;;6283471;27;80574;-68
2022/05/09 09:17:24;;;;;;;6.72;3.67;;;24.90;46.50;;;;;;6286199;27;80848;-68
2022/05/09 09:20:25;;;;;;;6.60;3.53;;;24.90;46.30;;;;;;6286926;27;80435;-68
2022/05/09 09:23:25;;;;;;;7.47;3.42;;;25.00;46.40;;;;;;6286959;27;80215;-67
2022/05/09 09:26:28;;;;;;;6.80;3.55;;;25.00;45.80;;;;;;6271546;27;80657;-67
2022/05/09 09:29:29;;;;;;;7.10;3.15;;;24.90;45.80;;;;;;6279090;27;80410;-67
2022/05/09 09:32:29;;;;;;;7.65;3.55;;;25.00;45.70;;;;;;6286579;27;80339;-68
2022/05/09 09:35:31;;;;;;;5.60;3.10;;;25.00;45.40;;;;;;6286243;27;86288;-67
2022/05/09 09:38:32;;;;;;;5.97;2.70;;;25.00;45.40;;;;;;6286759;27;80384;-68
2022/05/09 09:41:33;;;;;;;7.63;3.10;;;25.00;45.20;;;;;;6286525;27;80133;-68
2022/05/09 09:44:34;;;;;;;5.35;3.22;;;25.00;45.40;;;;;;6286528;27;80640;-69
2022/05/09 09:47:35;;;;;;;5.75;3.17;;;25.00;45.20;;;;;;6286355;27;86619;-67
2022/05/09 09:50:35;;;;;;;3.97;2.90;;;25.10;45.20;;;;;;6286696;27;80895;-67
2022/05/09 09:53:36;;;;;;;5.25;2.90;;;25.10;44.90;;;;;;6285139;27;80791;-67
2022/05/09 09:56:36;;;;;;;4.90;2.97;;;25.10;45.10;;;;;;6286782;27;80559;-67
2022/05/09 09:59:37;;;;;;;5.70;3.13;;;25.20;44.80;;;;;;6286055;27;81463;-67
2022/05/09 10:02:37;;;;;;;3.95;2.72;;;25.20;45.20;;;;;;6286320;27;80486;-67
2022/05/09 10:05:38;;;;;;;4.97;2.80;;;25.10;44.90;;;;;;6285806;27;81661;-67
2022/05/09 10:08:39;;;;;;;5.60;2.97;;;25.10;44.60;;;;;;6275440;27;81052;-67
2022/05/09 10:11:39;;;;;;;5.05;2.92;;;25.10;44.50;;;;;;6285242;27;81658;-67
2022/05/09 10:14:40;;;;;;;6.18;2.67;;;25.10;44.70;;;;;;6285327;27;80397;-67
2022/05/09 10:17:41;;;;;;;25.02;3.40;;;25.10;44.40;;;;;;6284223;27;81374;-67
2022/05/09 10:20:41;;;;;;;6.18;2.58;;;25.10;44.30;;;;;;6286020;27;80337;-67
2022/05/09 10:27:02;;;;;;;6.22;2.63;;;25.10;44.50;;;;;;6277866;27;80397;-67
2022/05/09 10:30:03;;;;;;;3.80;2.58;;;25.10;44.30;;;;;;6275096;27;80249;-67
2022/05/09 10:33:05;;;;;;;2.92;2.40;;;25.10;44.20;;;;;;6284946;27;87859;-68
2022/05/09 10:36:08;;;;;;;8.65;3.05;;;25.10;44.40;;;;;;6282503;27;80420;-69
2022/05/09 10:39:08;;;;;;;5.72;2.63;;;25.10;44.80;;;;;;6284698;27;80452;-68
2022/05/09 10:42:10;;;;;;;8.63;3.00;;;25.10;43.90;;;;;;6284808;27;80353;-67
2022/05/09 10:45:10;;;;;;;3.17;2.13;;;25.10;44.10;;;;;;6281469;27;80526;-66
2022/05/09 10:48:11;;;;;;;8.23;3.22;;;25.10;44.00;;;;;;6272519;27;81404;-69
2022/05/09 10:51:12;;;;;;;10.00;2.50;;;25.10;43.60;;;;;;6278440;27;80529;-67
2022/05/09 10:54:12;;;;;;;9.57;3.42;;;25.10;43.50;;;;;;6284761;27;80463;-66
2022/05/09 10:57:14;;;;;;;8.10;2.97;;;25.00;42.10;;;;;;6283427;27;80281;-67
2022/05/09 11:00:18;;;;;;;4.80;2.33;;;25.00;41.70;;;;;;6278101;27;80215;-67
2022/05/09 11:03:18;;;;;;;10.93;3.17;;;25.00;41.30;;;;;;6280458;27;80308;-68
2022/05/09 11:06:19;;;;;;;10.73;2.78;;;25.00;41.00;;;;;;6262448;27;81572;-68
2022/05/09 11:09:19;;;;;;;6.03;3.25;;;25.00;40.50;;;;;;6271718;27;80510;-65
2022/05/09 11:12:20;;;;;;;9.00;3.60;;;25.00;40.10;;;;;;6272821;27;80510;-67
2022/05/09 11:15:20;;;;;;;11.55;3.88;;;24.90;40.20;;;;;;6278581;27;86847;-67
2022/05/09 11:18:21;;;;;;;10.55;2.92;;;24.90;40.30;;;;;;6280259;27;80435;-67
2022/05/09 11:21:22;;;;;;;7.25;3.38;;;24.90;40.80;;;;;;6272405;27;81978;-67
2022/05/09 11:24:22;;;;;;;7.93;3.30;;;24.90;40.70;;;;;;6271802;27;80371;-66
2022/05/09 11:27:23;;;;;;;5.75;2.47;;;24.90;40.60;;;;;;6280730;27;80404;-67
2022/05/09 11:30:23;;;;;;;7.57;2.92;;;24.90;40.50;;;;;;6282902;27;80248;-67
2022/05/09 11:33:24;;;;;;;10.32;3.13;;;24.90;40.70;;;;;;6274823;27;81389;-68
2022/05/09 11:36:25;;;;;;;5.78;2.75;;;24.90;40.20;;;;;;6283590;27;80397;-68
2022/05/09 11:39:25;;;;;;;9.88;2.72;;;24.90;40.00;;;;;;6283685;27;80429;-69
2022/05/09 11:45:45;;;;;;;4.55;2.88;;;24.90;38.60;;;;;;6284148;27;81316;-68
2022/05/09 11:48:46;;;;;;;6.10;2.35;;;24.80;38.90;;;;;;6280284;27;80811;-68
2022/05/09 11:51:46;;;;;;;4.47;2.10;;;24.90;38.90;;;;;;6284874;27;80225;-68
2022/05/09 11:54:48;;;;;;;7.78;2.60;;;24.90;38.70;;;;;;6283870;27;81465;-68
2022/05/09 11:57:48;;;;;;;6.05;3.08;;;24.80;38.50;;;;;;6284089;27;80709;-68
2022/05/09 12:00:49;;;;;;;4.82;2.90;;;24.70;38.30;;;;;;6284556;27;80404;-69
2022/05/09 12:03:50;;;;;;;6.00;2.92;;;24.70;38.30;;;;;;6284298;27;80549;-69
2022/05/09 12:06:50;;;;;;;5.07;3.13;;;24.70;38.50;;;;;;6284306;27;80560;-70
2022/05/09 12:09:51;;;;;;;5.95;3.13;;;24.70;38.80;;;;;;6280377;27;80538;-68
2022/05/09 12:12:57;;;;;;;4.70;2.25;;;24.80;38.70;;;;;;6264323;27;80381;-68
2022/05/09 12:15:58;;;;;;;6.47;3.42;;;24.90;38.50;;;;;;6266680;27;80322;-68
2022/05/09 12:18:59;;;;;;;7.97;2.65;;;24.90;38.70;;;;;;6269959;27;80296;-69
2022/05/09 12:21:59;;;;;;;13.00;2.90;;;24.90;38.30;;;;;;6280628;27;80447;-68
2022/05/09 12:25:00;;;;;;;7.28;2.40;;;24.90;38.30;;;;;;6283664;27;80741;-68
2022/05/09 12:28:03;;;;;;;9.25;2.70;;;24.90;38.00;;;;;;6272569;27;83705;-69
2022/05/09 12:31:04;;;;;;;2.95;2.13;;;24.80;37.70;;;;;;6283831;27;80277;-70
2022/05/09 12:34:05;;;;;;;6.22;2.47;;;24.70;37.50;;;;;;6283788;27;80961;-71
2022/05/09 12:37:06;;;;;;;3.40;2.05;;;24.70;37.10;;;;;;6283930;27;80501;-70
2022/05/09 12:40:06;;;;;;;5.30;2.60;;;24.70;37.20;;;;;;6283286;27;81633;-70
2022/05/09 12:43:07;;;;;;;7.35;2.50;;;24.70;36.70;;;;;;6283732;27;81034;-74
2022/05/09 12:46:07;;;;;;;5.20;2.20;;;24.70;36.80;;;;;;6283879;27;80530;-70
2022/05/09 12:49:08;;;;;;;7.88;2.20;;;24.70;37.00;;;;;;6288292;27;80493;-68
2022/05/09 12:52:08;;;;;;;3.90;2.25;;;24.80;37.00;;;;;;6286283;27;80405;-69
2022/05/09 12:58:30;;;;;;;5.43;2.10;;;24.70;36.70;;;;;;6278891;27;80877;-70
2022/05/09 13:01:30;;;;;;;7.03;2.72;;;24.80;36.70;;;;;;6260276;27;81599;-70
2022/05/09 13:04:31;;;;;;;5.10;2.42;;;24.80;36.10;;;;;;6262828;27;80603;-69
2022/05/09 13:07:31;;;;;;;7.60;2.13;;;24.70;36.40;;;;;;6275911;27;80342;-68
2022/05/09 13:10:32;;;;;;;5.47;3.08;;;24.70;36.40;;;;;;6276889;27;80427;-72
2022/05/09 13:13:33;;;;;;;7.25;2.90;;;24.80;36.80;;;;;;6270742;27;80359;-70
2022/05/09 13:16:33;;;;;;;10.40;3.90;;;24.80;36.30;;;;;;6278945;27;80524;-71
2022/05/09 13:19:34;;;;;;;26.02;8.70;;;24.80;36.50;;;;;;6281699;27;81052;-71
2022/05/09 13:22:35;;;;;;;10.63;4.57;;;24.80;36.10;;;;;;6269333;27;80867;-69
2022/05/09 13:25:35;;;;;;;12.63;3.17;;;24.70;35.80;;;;;;6281231;27;80469;-68
2022/05/09 13:28:36;;;;;;;8.50;3.25;;;24.70;35.50;;;;;;6280721;27;80946;-69
2022/05/09 13:31:38;;;;;;;6.68;2.30;;;24.70;36.00;;;;;;6275619;27;80508;-69
2022/05/09 13:34:39;;;;;;;3.80;2.20;;;24.70;35.70;;;;;;6278620;27;80134;-69
2022/05/09 13:37:40;;;;;;;3.95;2.13;;;24.70;35.70;;;;;;6276495;27;80294;-68
2022/05/09 13:40:41;;;;;;;8.85;3.22;;;24.70;35.80;;;;;;6273323;27;80697;-66
2022/05/09 13:43:42;;;;;;;2.67;2.08;;;24.70;35.70;;;;;;6276578;27;80553;-66
2022/05/09 13:46:43;;;;;;;5.40;2.25;;;24.70;35.80;;;;;;6279064;27;80301;-67
2022/05/09 13:49:43;;;;;;;5.82;2.38;;;24.80;35.80;;;;;;6279465;27;80817;-68
2022/05/09 13:52:44;;;;;;;6.70;2.60;;;24.70;36.00;;;;;;6286586;27;80339;-68
2022/05/09 13:55:44;;;;;;;8.45;2.88;;;24.60;36.40;;;;;;6286468;27;80850;-68
2022/05/09 13:58:45;;;;;;;6.35;2.60;;;24.60;36.20;;;;;;6284323;27;80762;-67
2022/05/09 14:01:46;;;;;;;7.53;2.75;;;24.60;36.30;;;;;;6283419;27;81375;-66
2022/05/09 14:04:46;;;;;;;8.60;2.65;;;24.60;36.00;;;;;;6274815;27;82743;-70
2022/05/09 14:07:47;;;;;;;7.13;2.60;;;24.60;36.00;;;;;;6286341;27;80517;-69
2022/05/09 14:10:49;;;;;;;6.05;2.55;;;24.70;36.40;;;;;;6286162;27;80340;-69
2022/05/09 14:13:50;;;;;;;8.52;2.72;;;24.70;36.20;;;;;;6285297;27;80053;-70
2022/05/09 14:16:51;;;;;;;6.38;2.28;;;24.60;36.40;;;;;;6280802;27;81016;-68
2022/05/09 14:19:51;;;;;;;5.22;2.10;;;24.60;36.70;;;;;;6271601;27;81833;-72
2022/05/09 14:22:52;;;;;;;8.52;2.92;;;24.60;36.50;;;;;;6285319;27;80396;-68
2022/05/09 14:29:42;;;;;;;4.80;2.45;;;24.60;36.80;;;;;;6276881;27;80485;-69
2022/05/09 14:32:42;;;;;;;3.92;2.28;;;24.60;37.00;;;;;;6286365;27;80685;-69
2022/05/09 14:35:43;;;;;;;3.63;2.28;;;24.70;37.30;;;;;;6285910;27;81049;-68
2022/05/09 14:38:43;;;;;;;6.40;2.30;;;24.70;37.50;;;;;;6280685;27;81542;-68
2022/05/09 14:41:44;;;;;;;4.65;2.72;;;24.70;37.80;;;;;;6277076;27;80360;-69
2022/05/09 14:44:45;;;;;;;3.53;2.17;;;24.80;38.20;;;;;;6277123;27;80986;-69
2022/05/09 14:47:46;;;;;;;7.70;2.58;;;24.90;38.30;;;;;;6285240;27;80217;-66
2022/05/09 14:50:46;;;;;;;5.97;2.90;;;24.90;38.40;;;;;;6280918;27;80334;-67
2022/05/09 14:53:47;;;;;;;10.35;3.00;;;24.90;38.70;;;;;;6285644;27;80991;-68
2022/05/09 15:00:07;;;;;;;6.38;3.25;;;25.00;39.00;;;;;;6285326;27;83401;-67
2022/05/09 15:03:07;;;;;;;4.85;2.20;;;25.00;39.00;;;;;;6281739;27;80407;-67
2022/05/09 15:06:08;;;;;;;5.13;2.30;;;25.00;38.70;;;;;;6273781;27;80715;-66
2022/05/09 15:09:08;;;;;;;12.68;2.95;;;25.00;38.90;;;;;;6269173;27;80736;-66
2022/05/09 15:12:09;;;;;;;5.60;2.67;;;25.00;38.90;;;;;;6274583;27;80322;-66
2022/05/09 15:15:09;;;;;;;6.28;2.80;;;25.00;38.70;;;;;;6273607;27;80505;-65
2022/05/09 15:18:10;;;;;;;3.95;2.33;;;25.00;38.60;;;;;;6273774;27;80641;-66
2022/05/09 15:21:10;;;;;;;5.18;2.25;;;24.90;38.80;;;;;;6285166;27;80231;-67
2022/05/09 15:24:11;;;;;;;4.15;2.20;;;24.90;38.80;;;;;;6277059;27;80609;-66
2022/05/09 15:27:12;;;;;;;5.00;2.45;;;25.00;38.90;;;;;;6276890;27;80790;-66
2022/05/09 15:30:13;;;;;;;4.72;2.53;;;25.00;39.00;;;;;;6284088;27;80501;-67
2022/05/09 15:33:13;;;;;;;6.63;2.55;;;25.00;38.80;;;;;;6284483;27;81715;-67
2022/05/09 15:36:14;;;;;;;13.10;3.45;;;25.00;38.80;;;;;;6284452;27;80280;-68
2022/05/09 15:39:15;;;;;;;5.35;2.47;;;24.90;39.00;;;;;;6266564;27;80911;-64
2022/05/09 15:42:15;;;;;;;8.55;2.83;;;24.90;39.20;;;;;;6272204;27;80753;-68
2022/05/09 15:45:16;;;;;;;10.38;2.67;;;24.90;39.40;;;;;;6268465;27;81728;-68
2022/05/09 15:48:17;;;;;;;5.10;2.10;;;24.90;39.20;;;;;;6271333;27;80944;-67
2022/05/09 15:51:18;;;;;;;4.72;2.75;;;24.90;39.40;;;;;;6269270;27;80497;-67
2022/05/09 15:54:18;;;;;;;4.88;2.28;;;25.00;39.70;;;;;;6272977;27;80363;-67
2022/05/09 15:57:19;;;;;;;7.10;2.75;;;25.00;40.00;;;;;;6268913;27;81648;-68
2022/05/09 16:00:20;;;;;;;6.70;2.40;;;25.00;40.30;;;;;;6267405;27;80649;-64
2022/05/09 16:03:26;;;;;;;5.00;2.45;;;25.10;40.60;;;;;;6270145;27;80397;-67
2022/05/09 16:13:05;;;;;;;7.03;2.80;;;25.10;40.10;;;;;;6283304;27;80841;-66
2022/05/09 16:16:06;;;;;;;5.35;2.45;;;25.10;40.10;;;;;;6283721;27;80749;-66